Time;durP1;ratioP1;P1;durP2;ratioP2;P2;SDS_P1;SDS_P2;PMS_P1;PMS_P2;Temp;Humidity;BMP_temperature;BMP_pressure;BME280_temperature;BME280_humidity;BME280_pressure;Samples;Min_cycle;Max_cycle;Signal;HPM_P1;HPM_P2
2023/10/13 00:02:01;;;;;;;;;;;16.20;49.70;;;12.01;86.57;95760.31;5031844;28;19908;-51
2023/10/13 00:04:28;;;;;;;;;;;16.20;49.90;;;11.99;86.80;95762.44;5027363;28;20007;-48
2023/10/13 00:06:59;;;;;;;;;;;16.20;49.90;;;11.92;87.59;95769.94;5032994;28;19948;-46
2023/10/13 00:09:32;;;;;;;;;;;16.10;50.40;;;11.86;87.22;95771.81;5031970;28;19932;-51
2023/10/13 00:11:59;;;;;;;;;;;16.10;49.90;;;11.84;87.07;95765.88;5030856;28;19916;-51
2023/10/13 00:14:33;;;;;;;;;;;16.10;49.90;;;11.82;86.34;95766.16;5030814;28;19917;-50
2023/10/13 00:17:04;;;;;;;;;;;16.00;49.90;;;11.74;87.27;95763.22;5032938;28;19954;-47
2023/10/13 00:19:38;;;;;;;;;;;16.00;50.00;;;11.73;87.48;95761.63;5031906;28;19920;-49
2023/10/13 00:22:22;;;;;;;;;;;16.00;50.00;;;11.61;88.36;95772.56;5030119;28;20019;-48
2023/10/13 00:24:51;;;;;;;;;;;15.90;50.00;;;11.57;88.05;95766.97;5032102;28;19986;-48
2023/10/13 00:27:30;;;;;;;;;;;15.80;50.10;;;11.65;87.20;95759.50;5030803;28;20329;-48
2023/10/13 00:32:59;;;;;;;;;;;15.80;50.30;;;11.54;88.60;95756.81;5031642;28;19916;-48
2023/10/13 00:35:36;;;;;;;;;;;15.80;50.30;;;11.50;88.27;95755.78;5032314;28;19969;-49
2023/10/13 00:38:16;;;;;;;;;;;15.70;50.30;;;11.48;88.79;95755.22;5028119;28;19963;-48
2023/10/13 00:40:55;;;;;;;;;;;15.70;50.30;;;11.46;88.92;95751.22;5024482;28;19908;-46
2023/10/13 00:45:57;;;;;;;;;;;15.60;50.50;;;11.66;86.24;95747.75;5031389;28;20007;-48
2023/10/13 00:48:35;;;;;;;;;;;15.60;50.60;;;11.81;86.03;95751.25;5032214;28;20391;-47
2023/10/13 00:51:06;;;;;;;;;;;15.70;50.80;;;11.79;85.95;95750.69;5030663;28;19917;-47
2023/10/13 00:53:40;;;;;;;;;;;15.70;50.80;;;11.74;86.52;95747.22;5024122;28;20256;-46
2023/10/13 00:56:07;;;;;;;;;;;15.70;50.70;;;11.70;86.44;95746.16;5025357;28;19921;-48
2023/10/13 00:58:39;;;;;;;;;;;15.70;50.70;;;11.76;86.67;95753.91;5030811;28;20006;-47
2023/10/13 01:01:18;;;;;;;;;;;15.70;50.70;;;11.75;86.65;95756.81;5031891;28;19916;-47
2023/10/13 01:03:59;;;;;;;;;;;15.70;50.70;;;11.64;87.54;95755.22;5031581;28;19912;-48
2023/10/13 01:06:29;;;;;;;;;;;15.70;50.60;;;11.61;87.63;95747.75;5030932;28;19909;-46
2023/10/13 01:09:17;;;;;;;;;;;15.70;50.70;;;11.61;87.46;95747.75;5027639;28;20011;-51
2023/10/13 01:11:54;;;;;;;;;;;15.70;50.70;;;11.60;87.43;95740.84;5031738;28;19908;-49
2023/10/13 01:14:23;;;;;;;;;;;15.70;50.70;;;11.55;87.88;95744.28;5028485;28;19916;-51
2023/10/13 01:16:52;;;;;;;;;;;15.70;50.80;;;11.53;87.18;95741.91;5031618;28;19912;-46
2023/10/13 01:19:27;;;;;;;;;;;15.70;50.80;;;11.55;87.74;95737.06;5030721;28;19974;-49
2023/10/13 01:22:02;;;;;;;;;;;15.70;50.90;;;11.61;87.49;95743.22;5031380;28;19908;-50
2023/10/13 01:24:31;;;;;;;;;;;15.60;50.80;;;11.54;88.82;95730.16;5030970;28;19908;-52
2023/10/13 01:27:00;;;;;;;;;;;15.70;50.90;;;11.62;86.81;95733.34;5030624;28;20294;-49
2023/10/13 01:29:29;;;;;;;;;;;15.60;50.90;;;11.65;87.14;95732.81;5026761;28;19921;-49
2023/10/13 01:31:55;;;;;;;;;;;15.70;51.00;;;11.67;86.81;95728.81;5026961;28;20353;-47
2023/10/13 01:34:23;;;;;;;;;;;15.70;51.60;;;11.62;87.38;95730.69;5022035;28;19913;-48
2023/10/13 01:36:54;;;;;;;;;;;15.70;51.00;;;11.53;87.49;95725.88;5031024;28;19919;-49
2023/10/13 01:39:28;;;;;;;;;;;15.60;50.90;;;11.51;87.71;95720.00;5030110;28;20351;-49
2023/10/13 01:41:57;;;;;;;;;;;15.70;51.00;;;11.55;87.42;95728.28;5021942;28;19973;-47
2023/10/13 01:44:33;;;;;;;;;;;15.60;51.00;;;11.53;87.45;95722.41;5030272;28;19940;-50
2023/10/13 01:47:06;;;;;;;;;;;15.60;51.00;;;11.49;87.93;95724.81;5029571;28;19916;-50
2023/10/13 01:49:47;;;;;;;;;;;15.70;51.10;;;11.44;87.78;95721.31;5028934;28;19943;-48
2023/10/13 01:52:17;;;;;;;;;;;15.60;51.10;;;11.45;88.13;95721.06;5028331;28;19909;-47
2023/10/13 01:54:44;;;;;;;;;;;15.60;51.10;;;11.47;87.88;95718.94;5031094;28;20394;-49
2023/10/13 01:57:17;;;;;;;;;;;15.60;51.10;;;11.44;87.55;95727.50;5028372;28;19913;-50
2023/10/13 01:59:47;;;;;;;;;;;15.50;51.10;;;11.41;87.95;95724.56;5030802;28;20367;-47
2023/10/13 02:02:14;;;;;;;;;;;15.60;51.20;;;11.41;87.84;95712.00;5029929;28;19970;-47
2023/10/13 02:04:48;;;;;;;;;;;15.60;51.30;;;11.43;86.95;95715.19;5031162;28;19951;-47
2023/10/13 02:07:17;;;;;;;;;;;15.50;51.20;;;11.43;86.83;95725.06;5030463;28;20291;-47
2023/10/13 02:09:44;;;;;;;;;;;15.50;51.20;;;11.52;86.92;95724.28;5018587;28;19916;-46
2023/10/13 02:12:10;;;;;;;;;;;15.50;51.40;;;11.54;85.80;95721.34;5030642;28;20007;-46
2023/10/13 02:14:37;;;;;;;;;;;15.60;51.30;;;11.53;86.71;95717.06;5030313;28;19909;-48
2023/10/13 02:17:13;;;;;;;;;;;15.60;51.30;;;11.49;86.73;95721.34;5030842;28;19974;-51
2023/10/13 02:19:46;;;;;;;;;;;15.60;51.30;;;11.51;86.90;95716.56;5034192;28;19915;-49
2023/10/13 02:22:25;;;;;;;;;;;15.60;51.30;;;11.52;86.46;95718.94;5034807;28;20350;-50
2023/10/13 02:24:52;;;;;;;;;;;15.60;51.30;;;11.54;86.55;95716.81;5034990;28;19981;-52
2023/10/13 02:27:22;;;;;;;;;;;15.60;51.30;;;11.50;86.75;95707.75;5033536;28;20379;-51
2023/10/13 02:29:50;;;;;;;;;;;15.60;51.30;;;11.53;86.34;95725.06;5034572;28;20034;-47
2023/10/13 02:32:18;;;;;;;;;;;15.60;51.30;;;11.49;87.45;95716.00;5034088;28;19915;-47
2023/10/13 02:34:47;;;;;;;;;;;15.60;51.40;;;11.41;87.29;95719.22;5034891;28;19915;-52
2023/10/13 02:37:14;;;;;;;;;;;15.60;51.30;;;11.42;87.04;95720.81;5028415;28;20008;-49
2023/10/13 02:39:43;;;;;;;;;;;15.60;51.40;;;11.46;86.85;95717.34;5034501;28;19913;-48
2023/10/13 02:42:23;;;;;;;;;;;15.60;51.40;;;11.27;88.91;95719.72;5034645;28;19912;-46
2023/10/13 02:44:50;;;;;;;;;;;15.60;51.40;;;11.20;89.10;95715.72;5033872;28;19912;-43
2023/10/13 02:47:18;;;;;;;;;;;15.50;51.40;;;11.18;89.05;95712.50;5033910;28;19908;-44
2023/10/13 02:49:47;;;;;;;;;;;15.50;51.40;;;11.21;88.78;95718.13;5033491;28;19916;-46
2023/10/13 02:52:13;;;;;;;;;;;15.50;52.10;;;11.19;89.22;95716.78;5034220;28;19999;-45
2023/10/13 02:54:42;;;;;;;;;;;15.40;51.40;;;11.14;88.98;95717.56;5034144;28;20627;-47
2023/10/13 02:57:08;;;;;;;;;;;15.40;51.50;;;11.07;89.40;95715.16;5031392;28;19912;-46
2023/10/13 02:59:34;;;;;;;;;;;15.40;51.60;;;11.04;89.78;95718.38;5034045;28;19915;-43
2023/10/13 03:02:23;;;;;;;;;;;15.30;51.60;;;10.97;90.21;95709.00;5033770;28;20003;-45
2023/10/13 03:05:08;;;;;;;;;;;15.30;51.60;;;10.93;90.14;95711.41;5034359;28;19935;-46
2023/10/13 03:07:36;;;;;;;;;;;15.20;51.60;;;10.95;90.51;95708.47;5033483;28;19952;-43
2023/10/13 03:10:10;;;;;;;;;;;15.20;51.70;;;10.91;90.71;95707.41;5033794;28;19952;-45
2023/10/13 03:12:40;;;;;;;;;;;15.20;51.80;;;10.82;91.46;95704.47;5033749;28;19943;-43
2023/10/13 03:17:36;;;;;;;;;;;15.10;51.80;;;10.70;91.66;95701.22;5034512;28;19909;-45
2023/10/13 03:20:05;;;;;;;;;;;15.00;51.80;;;10.63;92.49;95699.59;5032763;28;19915;-44
2023/10/13 03:22:31;;;;;;;;;;;15.00;51.90;;;10.60;91.86;95700.13;5034078;28;20362;-44
2023/10/13 03:25:05;;;;;;;;;;;15.00;51.90;;;10.58;92.28;95699.56;5033985;28;19975;-49
2023/10/13 03:28:01;;;;;;;;;;;14.90;51.90;;;10.57;92.01;95699.84;5032738;28;19912;-44
2023/10/13 03:30:41;;;;;;;;;;;14.90;52.10;;;10.72;91.33;95694.56;5033400;28;20362;-44
2023/10/13 03:33:13;;;;;;;;;;;14.90;52.20;;;10.77;90.77;95697.25;5027675;28;19909;-44
2023/10/13 03:35:41;;;;;;;;;;;14.90;52.30;;;10.72;90.97;95694.56;5032796;28;19908;-45
2023/10/13 03:38:17;;;;;;;;;;;14.90;52.30;;;10.71;90.80;95687.63;5024807;28;19954;-45
2023/10/13 03:41:06;;;;;;;;;;;14.80;52.20;;;10.74;89.68;95684.44;5033941;28;19932;-45
2023/10/13 03:43:32;;;;;;;;;;;14.90;52.30;;;10.76;90.36;95685.00;5025527;28;20400;-45
2023/10/13 03:46:07;;;;;;;;;;;14.90;52.40;;;10.75;90.14;95677.25;5033621;28;19936;-45
2023/10/13 03:48:40;;;;;;;;;;;14.90;52.40;;;10.73;89.88;95677.53;5033137;28;19913;-46
2023/10/13 03:51:15;;;;;;;;;;;14.90;53.00;;;10.72;90.27;95667.94;5026065;28;19919;-47
2023/10/13 03:53:55;;;;;;;;;;;14.90;52.40;;;10.76;89.88;95674.34;5033539;28;19916;-44
2023/10/13 03:56:28;;;;;;;;;;;14.90;52.40;;;10.87;89.16;95670.63;5029512;28;20395;-45
2023/10/13 03:59:04;;;;;;;;;;;14.90;52.40;;;10.89;88.66;95667.69;5032908;28;19916;-45
2023/10/13 04:04:34;;;;;;;;;;;15.00;52.50;;;11.05;87.19;95663.19;5032169;28;19915;-44
2023/10/13 04:13:21;;;;;;;;;;;15.10;52.40;;;10.82;88.93;95670.63;5032334;28;20343;-45
2023/10/13 04:17:40;;;;;;;;;;;15.00;52.20;;;10.73;89.35;95663.41;5028204;28;19913;-44
2023/10/13 04:23:18;;;;;;;;;;;14.90;52.20;;;10.55;89.65;95654.81;5035196;28;20419;-43
2023/10/13 04:36:14;;;;;;;;;;;14.60;52.30;;;10.19;91.79;95637.91;5033084;28;19916;-45
2023/10/13 04:41:41;;;;;;;;;;;14.50;52.50;;;10.19;90.27;95640.56;5031640;28;20321;-44
2023/10/13 05:02:53;;;;;;;;;;;14.60;52.70;;;10.46;88.60;95634.28;4991432;28;19945;-46
2023/10/13 05:05:45;;;;;;;;;;;14.60;52.90;;;10.63;88.19;95632.22;4990824;28;20362;-47
2023/10/13 05:51:33;;;;;;;;;;;14.90;52.40;;;10.45;88.48;95646.00;4991387;28;19956;-45
2023/10/13 06:30:04;;;;;;;;;;;14.90;52.70;;;10.45;90.06;95660.13;4991967;28;20422;-48
2023/10/13 06:32:30;;;;;;;;;;;14.90;52.70;;;10.47;89.64;95657.22;4990746;28;19913;-44
2023/10/13 06:34:57;;;;;;;;;;;14.90;52.70;;;10.58;89.95;95656.16;4991713;28;19956;-45
2023/10/13 06:37:30;;;;;;;;;;;14.90;52.70;;;10.63;90.29;95656.19;4987919;28;19914;-47
2023/10/13 06:42:50;;;;;;;;;;;15.00;52.80;;;10.85;86.64;95659.44;4991844;28;20363;-44
2023/10/13 06:45:17;;;;;;;;;;;15.10;52.80;;;11.02;85.93;95659.19;4990699;28;19916;-44
2023/10/13 06:47:43;;;;;;;;;;;15.20;52.90;;;11.22;85.02;95655.75;4990955;28;19920;-46
2023/10/13 06:50:19;;;;;;;;;;;15.40;53.00;;;11.44;82.17;95662.66;4990686;28;19914;-45
2023/10/13 06:52:49;;;;;;;;;;;15.50;52.90;;;11.59;82.74;95657.31;4991591;28;19910;-50
2023/10/13 06:55:23;;;;;;;;;;;15.60;52.80;;;11.71;82.20;95657.03;4991274;28;19909;-51
2023/10/13 06:57:51;;;;;;;;;;;15.80;52.80;;;11.78;81.72;95666.38;4986216;28;19922;-46
2023/10/13 07:00:29;;;;;;;;;;;15.90;52.60;;;11.85;78.30;95663.44;4991183;28;19916;-47
2023/10/13 07:05:44;;;;;;;;;;;16.10;52.40;;;12.13;80.29;95662.03;4993486;28;19932;-47
2023/10/13 07:08:31;;;;;;;;;;;16.30;52.30;;;12.19;79.73;95657.47;4993775;28;20330;-44
2023/10/13 07:11:05;;;;;;;;;;;16.40;52.10;;;12.22;80.01;95670.28;4994699;28;19921;-48
2023/10/13 07:13:38;;;;;;;;;;;16.60;52.00;;;12.33;80.80;95668.38;4994239;28;19909;-47
2023/10/13 07:16:13;;;;;;;;;;;16.80;51.80;;;12.50;80.37;95666.97;4994269;28;19959;-45
2023/10/13 07:18:49;;;;;;;;;;;17.00;51.80;;;12.71;78.30;95674.88;4994643;28;19909;-43
2023/10/13 07:21:16;;;;;;;;;;;17.20;51.60;;;12.91;76.00;95677.47;4993536;28;20379;-46
2023/10/13 07:23:56;;;;;;;;;;;17.40;51.60;;;13.12;75.46;95682.66;4994358;28;19909;-46
2023/10/13 07:26:23;;;;;;;;;;;17.70;51.40;;;13.38;72.21;95684.13;4992827;28;20027;-47
2023/10/13 07:28:51;;;;;;;;;;;18.00;51.20;;;13.71;73.08;95695.06;4992595;28;19924;-53
2023/10/13 07:31:20;;;;;;;;;;;18.40;50.90;;;14.11;69.03;95683.19;4993056;28;19968;-51
2023/10/13 07:33:47;;;;;;;;;;;18.90;50.60;;;14.62;65.99;95689.06;4996909;28;20264;-48
2023/10/13 07:36:33;;;;;;;;;;;19.40;50.20;;;15.18;64.66;95686.41;4994446;28;20004;-50
2023/10/13 07:39:20;;;;;;;;;;;20.00;49.80;;;15.83;60.22;95687.59;4993161;28;19920;-49
2023/10/13 07:41:54;;;;;;;;;;;20.70;49.30;;;16.46;58.74;95684.28;4994590;28;19916;-47
2023/10/13 07:44:28;;;;;;;;;;;21.30;48.80;;;16.98;58.62;95689.41;4993686;28;19913;-49
2023/10/13 07:47:02;;;;;;;;;;;21.80;48.30;;;17.44;56.02;95691.06;4991587;28;20279;-49
2023/10/13 07:49:36;;;;;;;;;;;22.40;47.80;;;17.92;53.13;95685.06;4993046;28;19909;-45
2023/10/13 07:57:56;;;;;;;;;;;23.90;46.20;;;19.44;49.43;95692.69;4996911;28;19971;-50
2023/10/13 08:00:38;;;;;;;;;;;24.50;45.60;;;19.80;47.71;95691.56;4993481;28;19909;-46
2023/10/13 08:05:57;;;;;;;;;;;25.40;44.60;;;20.82;45.57;95687.25;4988220;28;19945;-47
2023/10/13 08:08:35;;;;;;;;;;;25.90;44.20;;;21.24;45.56;95682.66;4993003;28;19913;-51
2023/10/13 08:11:08;;;;;;;;;;;26.40;43.80;;;21.46;44.12;95678.84;4993372;28;20403;-48
2023/10/13 08:13:39;;;;;;;;;;;26.80;43.40;;;21.81;43.39;95686.66;4992554;28;19936;-50
2023/10/13 08:16:09;;;;;;;;;;;27.30;42.90;;;22.24;42.21;95680.84;4992444;28;19913;-49
2023/10/13 08:18:36;;;;;;;;;;;27.70;42.50;;;22.61;41.21;95675.44;4987308;28;19920;-54
2023/10/13 08:21:05;;;;;;;;;;;28.00;42.00;;;23.00;41.51;95673.19;4992539;28;19909;-50
2023/10/13 08:24:15;;;;;;;;;;;28.30;41.70;;;23.39;40.99;95676.28;4993267;28;19959;-53
2023/10/13 08:26:56;;;;;;;;;;;28.70;41.40;;;23.66;40.89;95677.41;4982669;28;20330;-46
2023/10/13 08:42:52;;;;;;;;;;;30.80;38.80;;;25.11;37.43;95659.69;4988979;28;19948;-54
2023/10/13 08:50:53;;;;;;;;;;;31.50;37.70;;;25.51;34.02;95651.22;4988562;28;20271;-55
2023/10/13 08:53:31;;;;;;;;;;;31.70;38.00;;;25.72;34.20;95650.06;4990160;28;19924;-55
2023/10/13 08:59:07;;;;;;;;;;;32.20;36.90;;;26.35;32.04;95640.69;4989318;28;19909;-53
2023/10/13 09:01:45;;;;;;;;;;;32.40;36.50;;;26.52;33.57;95637.50;4989195;28;19954;-51
2023/10/13 09:04:34;;;;;;;;;;;32.70;36.20;;;26.95;32.51;95636.22;4990155;28;19915;-54
2023/10/13 09:17:54;;;;;;;;;;;33.90;34.60;;;27.66;31.34;95632.81;4992519;28;19956;-51
2023/10/13 09:23:24;;;;;;;;;;;34.00;34.00;;;27.68;31.35;95633.25;4992408;28;19919;-51
2023/10/13 09:26:08;;;;;;;;;;;34.00;33.50;;;27.84;31.01;95633.84;4991628;28;19945;-53
2023/10/13 09:28:37;;;;;;;;;;;34.00;33.20;;;28.10;30.87;95637.63;4991540;28;19916;-53
2023/10/13 09:31:07;;;;;;;;;;;34.10;33.10;;;28.05;30.73;95635.25;4991822;28;19921;-57
2023/10/13 09:33:35;;;;;;;;;;;34.20;32.90;;;28.17;30.65;95628.69;4990744;28;19909;-50
2023/10/13 09:36:06;;;;;;;;;;;34.30;32.70;;;28.06;30.71;95628.59;4991745;28;20384;-54
2023/10/13 09:38:36;;;;;;;;;;;34.40;32.50;;;27.65;31.20;95628.53;4988013;28;19918;-51
2023/10/13 09:41:26;;;;;;;;;;;34.50;32.40;;;27.48;32.31;95629.88;4992029;28;19909;-53
2023/10/13 09:43:57;;;;;;;;;;;34.60;32.30;;;27.83;31.85;95620.53;4991073;28;19955;-52
2023/10/13 09:46:30;;;;;;;;;;;34.70;32.10;;;27.97;30.28;95617.94;4991927;28;20346;-54
2023/10/13 09:49:08;;;;;;;;;;;34.80;32.10;;;27.99;31.08;95617.59;4991595;28;19959;-50
2023/10/13 09:51:34;;;;;;;;;;;34.90;31.80;;;28.11;29.93;95612.63;4990897;28;20272;-54
2023/10/13 09:54:36;;;;;;;;;;;34.90;31.30;;;28.41;29.91;95608.97;4991346;28;19910;-54
2023/10/13 09:57:18;;;;;;;;;;;35.10;31.30;;;28.69;29.80;95611.16;4989570;28;20300;-54
2023/10/13 10:03:14;;;;;;;;;;;35.50;31.10;;;28.92;29.20;95604.63;4991137;28;20340;-56
2023/10/13 10:05:49;;;;;;;;;;;35.70;30.90;;;28.91;28.51;95608.53;4985503;28;19979;-54
2023/10/13 10:08:48;;;;;;;;;;;35.90;30.70;;;28.82;28.44;95600.66;4990748;28;19909;-54
2023/10/13 10:11:46;;;;;;;;;;;36.10;30.40;;;29.02;28.48;95595.72;4991606;28;19945;-55
2023/10/13 10:15:01;;;;;;;;;;;36.20;30.00;;;29.29;28.12;95597.00;4989029;28;19917;-53
2023/10/13 10:17:29;;;;;;;;;;;36.30;29.70;;;29.08;27.74;95596.91;4989611;28;19910;-54
2023/10/13 10:19:58;;;;;;;;;;;36.40;29.40;;;28.84;28.21;95592.84;4990772;28;19916;-55
2023/10/13 10:22:33;;;;;;;;;;;36.30;28.80;;;29.19;28.98;95588.75;4991719;28;19951;-51
2023/10/13 10:25:02;;;;;;;;;;;36.30;28.70;;;29.31;27.70;95587.63;4991546;28;19910;-55
2023/10/13 10:27:31;;;;;;;;;;;36.40;28.80;;;29.05;28.21;95579.28;4987982;28;19960;-52
2023/10/13 10:29:59;;;;;;;;;;;36.40;28.60;;;29.28;27.87;95573.50;4986378;28;19913;-52
2023/10/13 10:32:34;;;;;;;;;;;36.40;28.40;;;29.16;27.62;95582.06;4991133;28;19916;-53
2023/10/13 10:35:20;;;;;;;;;;;36.50;28.40;;;29.19;27.83;95575.81;4991205;28;19909;-51
2023/10/13 10:37:47;;;;;;;;;;;36.60;28.30;;;29.38;27.91;95560.22;4984350;28;19975;-56
2023/10/13 10:40:51;;;;;;;;;;;36.70;28.20;;;29.42;28.01;95561.78;5011094;28;19910;-55
2023/10/13 10:43:08;;;;;;;;;;;36.90;28.20;;;29.73;27.26;95560.34;4995051;28;20000;-57
2023/10/13 10:45:36;;;;;;;;;;;36.90;28.10;;;30.01;26.36;95558.81;4994636;28;19909;-52
2023/10/13 10:48:17;;;;;;;;;;;37.10;28.10;;;29.84;26.84;95552.13;4994884;28;19914;-50
2023/10/13 10:51:13;;;;;;;;;;;37.30;27.70;;;29.76;26.81;95547.81;4994289;28;20002;-53
2023/10/13 10:53:45;;;;;;;;;;;37.30;27.30;;;30.12;26.26;95551.38;4994504;28;20397;-55
2023/10/13 10:59:24;;;;;;;;;;;37.40;26.80;;;29.89;26.55;95542.72;5005684;28;19910;-50
2023/10/13 11:01:53;;;;;;;;;;;37.50;26.80;;;30.09;26.76;95535.69;5006137;28;20276;-49
2023/10/13 11:06:54;;;;;;;;;;;37.80;26.90;;;29.90;27.12;95528.63;4991229;28;20004;-50
2023/10/13 11:12:06;;;;;;;;;;;38.00;26.60;;;30.37;26.12;95517.66;4987462;28;19910;-54
2023/10/13 11:14:32;;;;;;;;;;;38.10;27.10;;;30.27;26.60;95513.72;4993092;28;19979;-52
2023/10/13 11:17:13;;;;;;;;;;;38.20;26.50;;;30.46;26.10;95514.50;4994139;28;19909;-50
2023/10/13 11:19:43;;;;;;;;;;;38.30;26.50;;;30.57;26.21;95510.56;4993674;28;19982;-52
2023/10/13 11:22:29;;;;;;;;;;;38.40;26.50;;;30.83;26.49;95506.56;4994008;28;19910;-55
2023/10/13 11:25:01;;;;;;;;;;;38.50;26.40;;;30.76;26.31;95494.81;4994618;28;19916;-53
2023/10/13 11:30:25;;;;;;;;;;;38.80;26.40;;;31.33;25.61;95494.59;4994349;28;19913;-54
2023/10/13 11:33:09;;;;;;;;;;;39.00;26.40;;;31.30;25.96;95490.66;4993569;28;19913;-54
2023/10/13 11:35:55;;;;;;;;;;;39.20;26.30;;;31.45;25.36;95479.63;4986272;28;20007;-56
2023/10/13 11:38:49;;;;;;;;;;;39.30;26.10;;;31.49;25.25;95483.91;4992468;28;20004;-57
2023/10/13 11:41:16;;;;;;;;;;;39.40;25.80;;;31.69;25.31;95484.19;4994168;28;19913;-57
2023/10/13 11:51:48;;;;;;;;;;;39.90;25.80;;;32.10;24.77;95460.69;4992787;28;20364;-56
2023/10/13 11:54:15;;;;;;;;;;;40.20;25.80;;;32.02;24.30;95460.72;4993920;28;19979;-55
2023/10/13 11:56:42;;;;;;;;;;;40.30;25.60;;;32.35;24.77;95460.44;4991788;28;19917;-50
2023/10/13 11:59:15;;;;;;;;;;;40.40;25.60;;;32.34;25.04;95458.88;4993444;28;19917;-56
2023/10/13 12:04:43;;;;;;;;;;;40.70;25.50;;;32.04;24.13;95443.81;4994366;28;19924;-50
2023/10/13 12:12:24;;;;;;;;;;;40.80;25.20;;;32.44;24.76;95431.25;4993803;28;19909;-56
2023/10/13 12:14:56;;;;;;;;;;;40.90;25.10;;;31.87;24.19;95428.97;4986774;28;20008;-58
2023/10/13 12:17:31;;;;;;;;;;;40.90;24.40;;;32.11;23.53;95416.19;4992809;28;19913;-50
2023/10/13 12:20:10;;;;;;;;;;;40.90;24.30;;;32.17;23.28;95422.81;4992356;28;19913;-58
2023/10/13 12:22:39;;;;;;;;;;;40.80;24.40;;;32.19;24.14;95408.66;4984785;28;19909;-58
2023/10/13 12:27:57;;;;;;;;;;;40.70;24.20;;;32.15;23.13;95403.16;4993063;28;20004;-56
2023/10/13 12:30:36;;;;;;;;;;;40.70;24.20;;;32.18;23.21;95405.09;4992867;28;20379;-51
2023/10/13 12:33:09;;;;;;;;;;;40.60;24.00;;;32.09;23.44;95412.28;4992167;28;20364;-55
2023/10/13 12:35:58;;;;;;;;;;;40.60;23.90;;;32.29;24.15;95401.47;4992886;28;19948;-54
2023/10/13 12:52:05;;;;;;;;;;;40.40;23.10;;;31.66;23.64;95379.59;4993185;28;20072;-51
2023/10/13 12:54:38;;;;;;;;;;;40.20;22.90;;;31.92;23.45;95381.75;4992770;28;20287;-52
2023/10/13 12:57:09;;;;;;;;;;;40.20;23.00;;;32.09;22.99;95380.03;4991182;28;20252;-50
2023/10/13 12:59:35;;;;;;;;;;;40.10;23.00;;;31.70;23.97;95372.88;4990377;28;19913;-53
2023/10/13 13:02:06;;;;;;;;;;;40.00;22.60;;;32.02;23.37;95369.84;4990829;28;19916;-51
2023/10/13 13:04:36;;;;;;;;;;;40.00;22.70;;;32.02;23.12;95364.31;4992376;28;20374;-52
2023/10/13 13:07:05;;;;;;;;;;;40.00;22.70;;;31.95;22.47;95369.91;4983939;28;19909;-52
2023/10/13 13:09:32;;;;;;;;;;;40.00;22.60;;;31.92;23.29;95356.19;5000113;28;20386;-51
2023/10/13 13:11:58;;;;;;;;;;;39.90;22.40;;;32.22;22.77;95358.25;4992177;28;19910;-57
2023/10/13 13:14:28;;;;;;;;;;;39.90;22.50;;;32.08;23.08;95356.41;4989988;28;19916;-55
2023/10/13 13:17:05;;;;;;;;;;;40.00;22.50;;;31.52;23.54;95358.47;4991770;28;19910;-56
2023/10/13 13:19:38;;;;;;;;;;;40.00;22.00;;;31.89;23.98;95351.50;4991420;28;19910;-58
2023/10/13 13:22:11;;;;;;;;;;;39.90;22.20;;;31.57;23.40;95356.06;4992061;28;19967;-58
2023/10/13 13:24:44;;;;;;;;;;;39.90;22.30;;;31.07;23.29;95345.41;4984402;28;19913;-52
2023/10/13 13:27:19;;;;;;;;;;;39.80;22.00;;;30.91;23.80;95349.84;4984871;28;19909;-58
2023/10/13 13:29:46;;;;;;;;;;;39.70;21.60;;;31.16;23.93;95342.22;4991744;28;20288;-54
2023/10/13 13:32:24;;;;;;;;;;;39.60;21.80;;;31.09;23.38;95340.31;4990883;28;19914;-58
2023/10/13 13:35:33;;;;;;;;;;;39.60;21.90;;;30.96;24.60;95341.94;4991143;28;20372;-55
2023/10/13 13:37:44;;;;;;;;;;;39.60;21.90;;;30.67;24.21;95333.81;4985873;28;19986;-51
2023/10/13 13:40:22;;;;;;;;;;;39.50;21.70;;;30.45;23.71;95331.59;4989541;28;19909;-57
2023/10/13 13:42:48;;;;;;;;;;;39.40;21.60;;;30.92;23.66;95326.66;4987332;28;19910;-56
2023/10/13 13:45:21;;;;;;;;;;;39.40;21.70;;;30.84;23.53;95332.22;4990798;28;19913;-54
2023/10/13 13:47:53;;;;;;;;;;;39.50;21.50;;;30.60;23.29;95322.09;4990764;28;20016;-57
2023/10/13 13:50:24;;;;;;;;;;;39.50;21.30;;;29.95;23.78;95319.56;4990545;28;20327;-54
2023/10/13 13:52:52;;;;;;;;;;;39.40;20.70;;;30.07;23.47;95315.59;4991792;28;19913;-58
2023/10/13 13:55:19;;;;;;;;;;;39.30;20.50;;;29.97;22.63;95308.97;4991685;28;20263;-56
2023/10/13 13:57:46;;;;;;;;;;;39.30;20.50;;;30.12;23.49;95309.72;4990133;28;20012;-57
2023/10/13 14:00:48;;;;;;;;;;;39.20;20.30;;;30.01;22.38;95308.19;4991030;28;20348;-56
2023/10/13 14:05:52;;;;;;;;;;;39.20;19.80;;;29.59;22.68;95298.84;4988784;28;19919;-53
2023/10/13 14:08:19;;;;;;;;;;;39.20;19.90;;;29.76;22.86;95294.50;4987402;28;20431;-54
2023/10/13 14:11:13;;;;;;;;;;;39.20;19.80;;;29.74;23.07;95290.22;4988871;28;19921;-54
2023/10/13 14:13:48;;;;;;;;;;;39.20;19.80;;;30.22;23.27;95291.66;4990461;28;19924;-52
2023/10/13 14:16:18;;;;;;;;;;;39.40;19.90;;;30.25;22.85;95284.59;4994343;28;20322;-54
2023/10/13 14:18:50;;;;;;;;;;;39.60;19.90;;;30.06;22.45;95283.06;4993468;28;19909;-57
2023/10/13 14:21:24;;;;;;;;;;;39.60;19.80;;;29.90;22.77;95278.03;4992871;28;19909;-52
2023/10/13 14:23:53;;;;;;;;;;;39.70;19.50;;;29.86;22.28;95274.50;4994106;28;19928;-52
2023/10/13 14:26:21;;;;;;;;;;;39.70;19.40;;;29.99;22.41;95275.63;4995138;28;20044;-51
2023/10/13 14:31:48;;;;;;;;;;;39.90;19.40;;;30.54;22.70;95269.53;4999811;28;19918;-58
2023/10/13 14:34:17;;;;;;;;;;;40.20;19.40;;;30.71;22.71;95269.81;4997288;28;20317;-55
2023/10/13 14:36:48;;;;;;;;;;;40.40;19.50;;;30.74;22.39;95271.75;4996980;28;19924;-57
2023/10/13 14:39:14;;;;;;;;;;;40.70;19.40;;;31.00;22.60;95276.72;4996081;28;19996;-57
2023/10/13 14:41:40;;;;;;;;;;;40.90;19.40;;;30.69;21.59;95258.44;4997193;28;20001;-57
2023/10/13 14:44:07;;;;;;;;;;;41.20;19.20;;;30.38;22.13;95269.22;4996888;28;19909;-57
2023/10/13 14:46:35;;;;;;;;;;;41.20;18.80;;;30.34;22.44;95257.47;4997971;28;20359;-56
2023/10/13 14:49:02;;;;;;;;;;;41.40;18.70;;;29.70;22.48;95251.00;4995781;28;19913;-58
2023/10/13 14:51:29;;;;;;;;;;;41.50;18.40;;;29.63;22.53;95256.50;4996634;28;19967;-56
2023/10/13 14:53:59;;;;;;;;;;;41.40;18.20;;;29.48;22.79;95252.97;4997579;28;19920;-57
2023/10/13 14:56:27;;;;;;;;;;;41.30;18.00;;;29.70;22.73;95234.53;4996995;28;20574;-55
2023/10/13 14:58:55;;;;;;;;;;;41.30;18.10;;;29.10;23.29;95246.38;4994562;28;19913;-55
2023/10/13 15:01:26;;;;;;;;;;;41.30;17.90;;;29.13;23.09;95236.56;4997632;28;20431;-54
2023/10/13 15:03:57;;;;;;;;;;;41.30;17.90;;;29.30;23.14;95238.50;4997310;28;19910;-57
2023/10/13 15:06:28;;;;;;;;;;;41.30;17.70;;;29.36;23.19;95242.41;4997534;28;20376;-56
2023/10/13 15:08:57;;;;;;;;;;;41.50;17.80;;;29.55;23.15;95227.47;4996686;28;19916;-52
2023/10/13 15:11:35;;;;;;;;;;;41.60;17.80;;;29.49;22.64;95243.59;4997557;28;19921;-57
2023/10/13 15:14:08;;;;;;;;;;;41.80;17.70;;;28.86;23.39;95238.88;4992875;28;20368;-56
2023/10/13 15:16:34;;;;;;;;;;;41.90;17.50;;;28.65;23.73;95234.97;4992557;28;20040;-53
2023/10/13 15:19:02;;;;;;;;;;;41.90;17.20;;;28.91;23.50;95231.06;4997192;28;20475;-56
2023/10/13 15:21:34;;;;;;;;;;;41.90;17.20;;;28.88;23.91;95218.13;4997179;28;19940;-53
2023/10/13 15:24:13;;;;;;;;;;;41.80;17.10;;;28.62;24.36;95227.53;4997982;28;20003;-57
2023/10/13 15:26:47;;;;;;;;;;;41.50;17.00;;;28.59;24.45;95223.59;4993116;28;19953;-54
2023/10/13 15:29:18;;;;;;;;;;;40.60;17.00;;;28.19;24.77;95223.88;4994181;28;20287;-57
2023/10/13 15:34:26;;;;;;;;;;;38.10;17.60;;;27.27;26.00;95217.56;4994476;28;20288;-52
2023/10/13 15:36:55;;;;;;;;;;;36.70;18.10;;;27.11;26.06;95214.31;4994401;28;19917;-51
2023/10/13 15:39:28;;;;;;;;;;;35.70;18.50;;;26.89;26.27;95222.34;4993405;28;20343;-52
2023/10/13 15:41:58;;;;;;;;;;;35.10;18.90;;;26.87;26.30;95218.41;4994273;28;19909;-50
2023/10/13 15:44:25;;;;;;;;;;;35.20;19.10;;;26.75;26.56;95217.53;4993316;28;19917;-51